< < Back
Terminal Aerodrome Forecast


Current Version              Previous Versions:   1  2  3  4  5  6  7  8  9  

Terminal Aerodrome Forecast

550
FTUS42 KJAX 011721
TAFSSI
TAF
KSSI 011721Z 0118/0218 16012KT P6SM SCT250
     FM012300 17010KT P6SM BKN250
     FM020400 18012KT P6SM SCT050 BKN100
     FM021000 20014G22KT P6SM -SHRA OVC040
     FM021300 24015G25KT 4SM -SHRA BR OVC020=



Latest METAR

035
SAUS70 KWBC 012100 RRX
MTRSSI
METAR KSSI 012053Z AUTO 14008KT 10SM CLR 17/10 A3009 RMK AO2 SLP189
T01720100 56032


USA.gov is the U.S. government's official web portal to all federal, state and local government web resources and services.